Time;durP1;ratioP1;P1;durP2;ratioP2;P2;SDS_P1;SDS_P2;PMS_P1;PMS_P2;Temp;Humidity;BMP_temperature;BMP_pressure;BME280_temperature;BME280_humidity;BME280_pressure;Samples;Min_cycle;Max_cycle;Signal;HPM_P1;HPM_P2
2022/05/18 00:00:57;;;;;;;2.45;1.85;;;12.20;99.90;;;;;;4979430;28;20235;-45
2022/05/18 00:03:31;;;;;;;5.25;1.73;;;12.20;99.90;;;;;;4996789;28;20296;-44
2022/05/18 00:06:03;;;;;;;2.72;1.40;;;12.20;99.90;;;;;;4996617;28;20216;-44
2022/05/18 00:08:35;;;;;;;4.75;1.45;;;12.10;99.90;;;;;;4996583;28;20212;-47
2022/05/18 00:11:11;;;;;;;1.50;1.40;;;12.00;99.90;;;;;;4996309;28;20226;-45
2022/05/18 00:13:41;;;;;;;4.45;1.90;;;11.90;99.90;;;;;;4995809;28;20205;-44
2022/05/18 00:16:09;;;;;;;2.88;1.80;;;11.80;99.90;;;;;;4996791;28;20228;-44
2022/05/18 00:18:38;;;;;;;2.15;1.75;;;11.80;99.90;;;;;;4996881;28;20225;-46
2022/05/18 00:21:06;;;;;;;2.60;1.25;;;11.80;99.90;;;;;;4995918;28;20232;-43
2022/05/18 00:23:34;;;;;;;1.20;1.10;;;11.80;99.90;;;;;;4997122;28;20546;-43
2022/05/18 00:26:02;;;;;;;3.67;1.83;;;11.70;99.90;;;;;;4997684;28;20212;-45
2022/05/18 00:28:29;;;;;;;1.20;1.08;;;11.60;99.90;;;;;;4996532;28;20204;-45
2022/05/18 00:30:57;;;;;;;1.20;1.10;;;11.60;99.90;;;;;;4996406;28;20252;-42
2022/05/18 00:33:29;;;;;;;2.13;1.10;;;11.50;99.90;;;;;;4995664;28;20556;-41
2022/05/18 00:35:59;;;;;;;1.58;1.08;;;11.40;99.90;;;;;;4996584;28;20216;-44
2022/05/18 00:38:27;;;;;;;1.48;1.38;;;11.30;99.90;;;;;;4988742;28;20405;-43
2022/05/18 00:40:55;;;;;;;2.55;1.88;;;11.20;99.90;;;;;;4993671;28;20239;-46
2022/05/18 00:43:31;;;;;;;3.88;1.15;;;11.10;99.90;;;;;;4976493;28;20244;-41
2022/05/18 00:46:01;;;;;;;1.67;1.55;;;11.10;99.90;;;;;;4976512;28;20208;-45
2022/05/18 00:48:29;;;;;;;1.27;1.27;;;11.10;99.90;;;;;;4976497;28;20244;-48
2022/05/18 00:50:58;;;;;;;3.85;1.92;;;10.90;99.90;;;;;;4976198;28;20672;-46
2022/05/18 00:53:31;;;;;;;2.22;1.30;;;10.80;99.90;;;;;;4975840;28;20288;-42
2022/05/18 00:56:03;;;;;;;1.27;1.13;;;10.70;99.90;;;;;;4977627;28;20213;-43
2022/05/18 00:59:00;;;;;;;1.05;1.00;;;10.70;99.90;;;;;;4980563;28;20214;-44
2022/05/18 01:01:28;;;;;;;2.22;1.45;;;10.60;99.90;;;;;;4980634;28;20300;-46
2022/05/18 01:03:56;;;;;;;2.30;1.70;;;10.50;99.90;;;;;;4977445;28;20411;-45
2022/05/18 01:06:34;;;;;;;4.43;1.98;;;10.60;99.90;;;;;;4976000;28;20246;-42
2022/05/18 01:09:16;;;;;;;1.13;1.02;;;10.60;99.90;;;;;;4976058;28;20591;-44
2022/05/18 01:11:43;;;;;;;3.17;1.60;;;10.60;99.90;;;;;;4975971;28;20240;-45
2022/05/18 01:14:19;;;;;;;1.35;1.25;;;10.70;99.90;;;;;;4976044;28;20219;-45
2022/05/18 01:16:47;;;;;;;2.40;1.40;;;10.60;99.90;;;;;;4975927;28;20521;-46
2022/05/18 01:19:37;;;;;;;3.92;1.67;;;10.40;99.90;;;;;;4975490;28;20237;-46
2022/05/18 01:22:20;;;;;;;2.10;1.25;;;10.40;99.90;;;;;;4975510;28;20302;-44
2022/05/18 01:25:15;;;;;;;3.20;1.65;;;10.40;99.90;;;;;;4975668;28;20541;-43
2022/05/18 01:27:43;;;;;;;6.18;1.08;;;10.30;99.90;;;;;;4974814;28;20203;-43
2022/05/18 01:30:12;;;;;;;2.28;1.77;;;10.10;99.90;;;;;;4975980;28;20213;-45
2022/05/18 01:32:42;;;;;;;2.08;1.08;;;10.10;99.90;;;;;;4975397;28;20228;-43
2022/05/18 01:35:15;;;;;;;9.20;2.00;;;10.00;99.90;;;;;;4977903;28;20216;-48
2022/05/18 01:37:42;;;;;;;1.55;1.30;;;9.90;99.90;;;;;;4976636;28;20557;-45
2022/05/18 01:40:46;;;;;;;1.33;1.10;;;10.10;99.90;;;;;;4975863;28;20222;-44
2022/05/18 01:43:34;;;;;;;2.70;1.50;;;10.00;99.90;;;;;;4975398;28;20227;-42
2022/05/18 01:46:08;;;;;;;1.45;1.35;;;10.00;99.90;;;;;;4977410;28;20207;-43
2022/05/18 01:48:42;;;;;;;3.28;1.30;;;9.80;99.90;;;;;;4976688;28;20384;-48
2022/05/18 01:51:34;;;;;;;4.57;2.42;;;9.70;99.90;;;;;;4974800;28;20303;-44
2022/05/18 01:54:01;;;;;;;1.58;1.42;;;9.70;99.90;;;;;;4975835;28;20234;-43
2022/05/18 01:56:28;;;;;;;2.10;1.70;;;9.80;99.90;;;;;;4974851;28;20240;-44
2022/05/18 01:58:56;;;;;;;3.95;1.13;;;9.80;99.90;;;;;;4957995;28;20271;-46
2022/05/18 02:01:23;;;;;;;1.75;1.52;;;9.80;99.90;;;;;;4957957;28;20238;-42
2022/05/18 02:03:50;;;;;;;3.03;1.25;;;9.70;99.90;;;;;;4975492;28;20209;-42
2022/05/18 02:06:18;;;;;;;1.70;1.45;;;9.70;99.90;;;;;;4974957;28;20207;-43
2022/05/18 02:08:45;;;;;;;5.78;1.73;;;9.60;99.90;;;;;;4975383;28;20209;-42
2022/05/18 02:11:18;;;;;;;1.25;1.15;;;9.60;99.90;;;;;;4974988;28;20242;-44
2022/05/18 02:13:46;;;;;;;1.50;1.23;;;9.60;99.90;;;;;;4974921;28;20288;-44
2022/05/18 02:16:13;;;;;;;2.03;1.27;;;9.50;99.90;;;;;;4977296;28;20230;-43
2022/05/18 02:18:41;;;;;;;1.58;1.48;;;9.30;99.90;;;;;;4995981;28;20210;-43
2022/05/18 02:21:10;;;;;;;2.75;1.20;;;9.30;99.90;;;;;;4977643;28;20354;-45
2022/05/18 02:23:39;;;;;;;2.65;1.25;;;9.20;99.90;;;;;;4974740;28;20232;-44
2022/05/18 02:26:11;;;;;;;2.05;1.60;;;9.10;99.90;;;;;;4957872;28;20235;-47
2022/05/18 02:28:39;;;;;;;2.03;1.63;;;9.10;99.90;;;;;;4974768;28;20208;-42
2022/05/18 02:31:06;;;;;;;1.73;1.20;;;9.10;99.90;;;;;;4974313;28;20242;-42
2022/05/18 02:33:34;;;;;;;1.40;1.30;;;9.10;99.90;;;;;;4974488;28;20414;-42
2022/05/18 02:36:02;;;;;;;1.48;1.10;;;8.90;99.90;;;;;;4974852;28;20518;-44
2022/05/18 02:38:29;;;;;;;2.90;2.08;;;8.90;99.90;;;;;;4974201;28;20230;-44
2022/05/18 02:40:58;;;;;;;2.35;1.63;;;8.80;99.90;;;;;;4974843;28;20230;-44
2022/05/18 02:43:26;;;;;;;1.92;1.83;;;8.80;99.90;;;;;;4974835;28;20238;-42
2022/05/18 02:46:05;;;;;;;1.35;0.90;;;8.70;99.90;;;;;;4975670;28;20208;-44
2022/05/18 02:48:32;;;;;;;2.05;1.25;;;8.90;99.90;;;;;;4974971;28;20200;-44
2022/05/18 02:51:00;;;;;;;2.67;2.25;;;8.80;99.90;;;;;;4974950;28;20227;-45
2022/05/18 02:53:27;;;;;;;1.33;1.23;;;8.70;99.90;;;;;;4974444;28;20499;-43
2022/05/18 02:56:06;;;;;;;2.05;1.83;;;8.60;99.90;;;;;;4975073;28;20214;-44
2022/05/18 02:58:42;;;;;;;1.30;1.20;;;8.50;99.90;;;;;;4957604;28;20273;-45
2022/05/18 03:01:11;;;;;;;2.28;1.48;;;8.50;99.90;;;;;;4978191;28;20498;-42
2022/05/18 03:03:40;;;;;;;1.48;1.38;;;8.60;99.90;;;;;;4979234;28;20265;-43
2022/05/18 03:06:09;;;;;;;1.38;1.23;;;8.60;99.90;;;;;;4979718;28;20472;-42
2022/05/18 03:08:39;;;;;;;2.13;1.85;;;8.60;99.90;;;;;;4979543;28;20218;-44
2022/05/18 03:11:07;;;;;;;3.58;1.52;;;8.70;99.90;;;;;;4980053;28;20621;-44
2022/05/18 03:13:35;;;;;;;1.70;1.60;;;8.80;99.90;;;;;;4979808;28;20242;-43
2022/05/18 03:16:03;;;;;;;3.47;1.80;;;8.70;99.90;;;;;;4979693;28;20551;-42
2022/05/18 03:18:31;;;;;;;1.40;1.30;;;8.60;99.90;;;;;;4986049;28;20218;-42
2022/05/18 03:23:45;;;;;;;3.33;1.70;;;8.50;99.90;;;;;;4979391;28;20529;-44
2022/05/18 03:26:15;;;;;;;1.77;1.30;;;8.40;99.90;;;;;;4979897;28;20238;-43
2022/05/18 03:28:45;;;;;;;1.92;1.67;;;8.40;99.90;;;;;;4979797;28;20215;-42
2022/05/18 03:31:12;;;;;;;3.60;1.73;;;8.50;99.90;;;;;;4979320;28;20303;-44
2022/05/18 03:33:40;;;;;;;2.45;1.35;;;8.70;99.90;;;;;;4978266;28;20277;-44
2022/05/18 03:36:10;;;;;;;1.90;1.45;;;8.60;99.90;;;;;;4979123;28;20245;-43
2022/05/18 03:38:39;;;;;;;3.95;1.70;;;8.70;99.90;;;;;;4979174;28;20305;-44
2022/05/18 03:41:06;;;;;;;1.85;1.60;;;8.80;99.90;;;;;;4978655;28;20659;-42
2022/05/18 03:43:34;;;;;;;2.97;1.65;;;8.80;99.90;;;;;;4979001;28;20235;-43
2022/05/18 03:46:02;;;;;;;7.05;1.80;;;8.80;99.90;;;;;;4978633;28;20283;-44
2022/05/18 03:48:31;;;;;;;1.50;1.40;;;8.90;99.90;;;;;;4979137;28;20207;-42
2022/05/18 03:51:01;;;;;;;4.82;1.63;;;8.90;99.90;;;;;;4978622;28;20456;-44
2022/05/18 03:53:29;;;;;;;2.72;1.80;;;8.90;99.90;;;;;;4978687;28;20558;-44
2022/05/18 03:55:56;;;;;;;4.43;1.98;;;8.80;99.90;;;;;;4978131;28;20212;-44
2022/05/18 03:58:24;;;;;;;2.83;2.33;;;8.90;99.90;;;;;;4977481;28;20223;-40
2022/05/18 04:00:56;;;;;;;2.85;1.55;;;9.00;99.90;;;;;;4977016;28;20237;-44
2022/05/18 04:03:25;;;;;;;4.88;1.98;;;9.00;99.90;;;;;;4977121;28;20234;-42
2022/05/18 04:05:53;;;;;;;3.00;1.88;;;9.00;99.90;;;;;;4976900;28;20232;-41
2022/05/18 04:08:21;;;;;;;5.15;1.80;;;9.10;99.90;;;;;;4978008;28;20207;-43
2022/05/18 04:10:48;;;;;;;1.80;1.27;;;9.10;99.90;;;;;;4978969;28;20323;-43
2022/05/18 04:13:20;;;;;;;4.30;2.22;;;9.20;99.90;;;;;;4975530;28;20216;-45
2022/05/18 04:15:47;;;;;;;3.38;2.13;;;9.30;99.90;;;;;;4977054;28;20212;-43
2022/05/18 04:18:15;;;;;;;1.98;1.60;;;9.30;99.90;;;;;;4977303;28;20434;-42
2022/05/18 04:20:44;;;;;;;5.10;1.98;;;9.30;99.90;;;;;;4976175;28;20449;-41
2022/05/18 04:23:15;;;;;;;3.95;1.50;;;9.40;99.90;;;;;;4976398;28;20231;-42
2022/05/18 04:25:43;;;;;;;1.85;1.33;;;9.50;99.90;;;;;;4976439;28;20214;-43
2022/05/18 04:28:14;;;;;;;2.20;2.00;;;9.60;99.90;;;;;;4976824;28;20214;-47
2022/05/18 04:30:44;;;;;;;2.00;1.15;;;9.60;99.90;;;;;;4988843;28;20307;-43
2022/05/18 04:33:15;;;;;;;4.20;1.80;;;9.70;99.90;;;;;;4986547;28;20565;-43
2022/05/18 04:35:43;;;;;;;2.45;1.55;;;9.70;99.90;;;;;;4976446;28;20555;-47
2022/05/18 04:38:10;;;;;;;3.90;1.98;;;9.70;99.90;;;;;;4976250;28;20287;-42
2022/05/18 04:40:41;;;;;;;1.38;1.27;;;9.70;99.90;;;;;;4976231;28;20243;-43
2022/05/18 04:43:08;;;;;;;6.32;1.80;;;9.70;99.90;;;;;;4976309;28;20495;-41
2022/05/18 04:45:36;;;;;;;2.63;2.05;;;9.60;99.90;;;;;;4976074;28;20209;-42
2022/05/18 04:48:03;;;;;;;1.65;1.55;;;9.70;99.90;;;;;;4976076;28;20383;-46
2022/05/18 04:50:31;;;;;;;1.95;1.63;;;9.90;99.90;;;;;;4991846;28;20217;-41
2022/05/18 04:52:58;;;;;;;2.92;1.50;;;10.00;99.90;;;;;;4995139;28;20430;-43
2022/05/18 04:55:26;;;;;;;3.63;1.45;;;10.00;99.90;;;;;;4976275;28;20276;-47
2022/05/18 04:57:53;;;;;;;1.60;1.30;;;10.10;99.90;;;;;;4978154;28;20267;-44
2022/05/18 05:00:25;;;;;;;2.58;1.90;;;10.20;99.90;;;;;;4992430;28;20263;-43
2022/05/18 05:02:56;;;;;;;1.50;1.40;;;10.20;99.90;;;;;;4976195;28;20228;-44
2022/05/18 05:05:28;;;;;;;2.03;1.83;;;10.30;99.90;;;;;;4987125;28;20208;-43
2022/05/18 05:07:56;;;;;;;3.00;2.10;;;10.30;99.90;;;;;;4979740;28;20216;-42
2022/05/18 05:10:26;;;;;;;3.83;2.33;;;10.40;99.90;;;;;;4975743;28;20209;-45
2022/05/18 05:12:54;;;;;;;2.10;1.90;;;10.60;99.90;;;;;;4976171;28;20446;-42
2022/05/18 05:15:21;;;;;;;1.83;1.42;;;10.60;99.90;;;;;;4976248;28;20219;-43
2022/05/18 05:17:49;;;;;;;4.10;1.80;;;10.60;99.90;;;;;;4988998;28;20209;-46
2022/05/18 05:20:20;;;;;;;2.08;1.88;;;10.50;99.90;;;;;;4991386;28;20593;-40
2022/05/18 05:22:48;;;;;;;2.78;2.10;;;10.60;99.90;;;;;;4994507;28;20583;-42
2022/05/18 05:25:15;;;;;;;3.47;2.47;;;10.60;99.90;;;;;;4992661;28;20236;-43
2022/05/18 05:27:42;;;;;;;2.30;1.90;;;10.60;99.90;;;;;;4996790;28;20218;-45
2022/05/18 05:30:11;;;;;;;4.68;2.28;;;10.80;99.90;;;;;;4989411;28;20412;-43
2022/05/18 05:32:39;;;;;;;2.97;2.17;;;11.00;99.90;;;;;;4976410;28;20256;-43
2022/05/18 05:35:10;;;;;;;2.33;1.88;;;11.00;99.90;;;;;;4976145;28;20474;-43
2022/05/18 05:37:41;;;;;;;4.65;1.75;;;11.10;99.90;;;;;;4978671;28;20198;-43
2022/05/18 05:40:08;;;;;;;2.00;1.13;;;11.20;99.90;;;;;;4978495;28;20267;-49
2022/05/18 05:42:37;;;;;;;3.08;1.90;;;11.20;99.90;;;;;;4978656;28;20268;-46
2022/05/18 05:45:05;;;;;;;3.10;1.70;;;11.40;99.90;;;;;;4979021;28;20215;-46
2022/05/18 05:47:32;;;;;;;6.13;1.90;;;11.60;99.90;;;;;;4975067;28;20213;-43
2022/05/18 05:50:00;;;;;;;2.38;2.03;;;11.80;99.90;;;;;;4975252;28;20297;-47
2022/05/18 05:52:27;;;;;;;4.03;1.60;;;11.90;99.90;;;;;;4993805;28;20506;-43
2022/05/18 05:54:55;;;;;;;3.65;1.70;;;11.90;99.90;;;;;;4979784;28;20233;-43
2022/05/18 05:57:22;;;;;;;1.35;1.25;;;11.90;99.90;;;;;;4976471;28;20208;-42
2022/05/18 05:59:49;;;;;;;2.08;1.58;;;12.00;99.90;;;;;;4976758;28;20209;-45
2022/05/18 06:02:17;;;;;;;2.35;1.40;;;11.90;99.90;;;;;;4976230;28;20226;-41
2022/05/18 06:04:44;;;;;;;3.33;1.90;;;12.00;99.90;;;;;;4975069;28;20592;-43
2022/05/18 06:07:12;;;;;;;1.63;1.35;;;12.10;99.90;;;;;;4975697;28;20529;-45
2022/05/18 06:09:41;;;;;;;2.28;1.52;;;12.20;99.90;;;;;;4973891;28;20206;-44
2022/05/18 06:12:09;;;;;;;7.65;1.80;;;12.20;99.90;;;;;;4974742;28;20234;-45
2022/05/18 06:14:36;;;;;;;2.30;1.25;;;12.40;99.90;;;;;;4992933;28;20220;-42
2022/05/18 06:17:04;;;;;;;1.30;1.20;;;12.70;99.90;;;;;;4978444;28;20529;-45
2022/05/18 06:19:33;;;;;;;2.83;2.05;;;12.90;99.90;;;;;;4974785;28;20233;-47
2022/05/18 06:22:01;;;;;;;2.35;2.15;;;13.30;99.90;;;;;;4974712;28;20265;-48
2022/05/18 06:24:28;;;;;;;1.70;1.45;;;13.90;99.90;;;;;;4977710;28;21668;-45
2022/05/18 06:26:58;;;;;;;1.20;1.10;;;14.30;99.90;;;;;;4994036;28;20229;-46
2022/05/18 06:29:26;;;;;;;3.45;2.28;;;14.60;99.90;;;;;;4992556;28;20205;-45
2022/05/18 06:31:53;;;;;;;2.47;1.60;;;15.30;99.90;;;;;;4980428;28;20511;-45
2022/05/18 06:34:21;;;;;;;1.67;1.57;;;16.00;98.50;;;;;;4994184;28;20567;-44
2022/05/18 06:36:49;;;;;;;2.20;1.37;;;16.10;97.70;;;;;;4990492;28;20446;-46
2022/05/18 06:39:19;;;;;;;5.90;2.80;;;16.90;96.00;;;;;;4982533;28;20684;-44
2022/05/18 06:41:47;;;;;;;2.10;1.33;;;17.50;95.40;;;;;;4992007;28;20473;-45
2022/05/18 06:44:15;;;;;;;2.33;1.77;;;17.70;93.60;;;;;;4979007;28;20556;-45
2022/05/18 06:46:48;;;;;;;1.70;1.60;;;18.10;92.30;;;;;;4993640;28;20446;-44
2022/05/18 06:49:17;;;;;;;1.57;1.10;;;18.30;91.80;;;;;;4996887;28;20533;-42
2022/05/18 06:51:46;;;;;;;1.77;1.30;;;18.50;91.50;;;;;;4990918;28;20751;-42
2022/05/18 06:54:15;;;;;;;2.30;1.80;;;19.70;89.50;;;;;;4994232;28;20451;-46
2022/05/18 06:57:05;;;;;;;2.13;1.53;;;21.20;83.30;;;;;;4997608;28;20402;-45
2022/05/18 06:59:33;;;;;;;2.73;1.40;;;23.10;73.60;;;;;;4977733;28;20424;-42
2022/05/18 07:02:00;;;;;;;7.53;1.87;;;23.20;72.50;;;;;;4978517;28;20722;-41
2022/05/18 07:04:27;;;;;;;1.60;1.50;;;24.30;66.00;;;;;;4995581;28;20554;-45
2022/05/18 07:06:55;;;;;;;2.60;1.93;;;25.90;63.30;;;;;;4989489;28;20443;-44
2022/05/18 07:09:24;;;;;;;2.40;1.80;;;26.80;59.00;;;;;;4993850;28;20522;-46
2022/05/18 07:11:51;;;;;;;2.07;1.73;;;28.10;54.50;;;;;;4977784;28;20740;-45
2022/05/18 07:14:23;;;;;;;3.30;1.77;;;26.90;53.80;;;;;;4983111;28;20443;-41
2022/05/18 07:16:55;;;;;;;5.07;1.40;;;25.90;55.90;;;;;;4996750;28;20449;-47
2022/05/18 07:19:23;;;;;;;3.40;1.90;;;27.50;54.20;;;;;;4977878;28;20425;-42
2022/05/18 07:21:51;;;;;;;4.70;1.77;;;26.30;52.80;;;;;;4977608;28;20542;-49
2022/05/18 07:24:19;;;;;;;3.83;1.73;;;25.70;53.20;;;;;;4993821;28;20487;-45
2022/05/18 07:26:47;;;;;;;2.00;1.60;;;27.00;53.40;;;;;;4983228;28;20749;-47
2022/05/18 07:29:14;;;;;;;2.67;1.70;;;26.90;52.00;;;;;;4977257;28;20445;-45
2022/05/18 07:34:43;;;;;;;6.20;1.87;;;26.80;51.10;;;;;;4945085;28;20509;-44
2022/05/18 07:37:12;;;;;;;3.87;1.30;;;26.90;52.20;;;;;;4978146;28;20656;-45
2022/05/18 07:39:49;;;;;;;2.00;1.83;;;26.60;51.70;;;;;;4977335;28;20442;-46
2022/05/18 07:42:17;;;;;;;2.90;1.90;;;26.90;51.50;;;;;;4976854;28;20486;-44
2022/05/18 07:44:45;;;;;;;2.23;1.60;;;27.70;50.80;;;;;;4977362;28;20894;-45
2022/05/18 07:47:12;;;;;;;2.60;1.60;;;27.20;50.40;;;;;;4976628;28;20475;-48
2022/05/18 07:49:42;;;;;;;7.20;1.77;;;28.60;49.00;;;;;;4976837;28;20444;-46
2022/05/18 07:52:10;;;;;;;1.60;1.50;;;29.60;46.70;;;;;;4982743;28;20557;-45
2022/05/18 07:54:37;;;;;;;7.70;1.80;;;29.50;47.00;;;;;;4990454;28;20459;-45
2022/05/18 07:57:08;;;;;;;2.27;1.63;;;29.40;45.90;;;;;;4978033;28;20464;-47
2022/05/18 07:59:36;;;;;;;3.20;1.83;;;29.70;46.50;;;;;;4976842;28;20497;-42
2022/05/18 08:02:04;;;;;;;2.13;1.93;;;30.50;45.70;;;;;;4977398;28;21102;-43
2022/05/18 08:04:31;;;;;;;5.17;2.00;;;32.20;44.70;;;;;;4994662;28;20772;-43
2022/05/18 08:06:58;;;;;;;3.53;2.33;;;31.20;44.20;;;;;;4981020;28;20446;-44
2022/05/18 08:09:26;;;;;;;2.40;1.90;;;29.80;45.50;;;;;;4977604;28;20447;-46
2022/05/18 08:17:25;;;;;;;1.67;1.57;;;32.50;43.50;;;;;;4976308;28;20479;-45
2022/05/18 08:19:53;;;;;;;2.47;1.67;;;31.60;43.70;;;;;;4976339;28;20455;-49
2022/05/18 08:22:21;;;;;;;4.17;1.90;;;29.90;43.60;;;;;;4976328;28;20460;-45
2022/05/18 08:24:48;;;;;;;2.00;1.40;;;29.90;44.10;;;;;;4975950;28;20480;-47
2022/05/18 08:27:16;;;;;;;2.37;1.70;;;30.70;43.40;;;;;;4975976;28;20458;-47
2022/05/18 08:29:47;;;;;;;3.23;2.20;;;30.80;43.10;;;;;;4976380;28;20814;-44
2022/05/18 08:32:15;;;;;;;3.83;1.57;;;30.60;41.70;;;;;;4976279;28;20803;-47
2022/05/18 08:34:42;;;;;;;1.87;1.67;;;28.60;43.70;;;;;;4975989;28;20479;-48
2022/05/18 08:37:10;;;;;;;1.70;1.53;;;28.50;44.60;;;;;;4976772;28;20468;-45
2022/05/18 08:39:38;;;;;;;1.63;1.53;;;30.00;44.00;;;;;;4976471;28;20472;-48
2022/05/18 08:42:06;;;;;;;1.93;1.83;;;32.00;42.10;;;;;;4976265;28;20461;-44
2022/05/18 08:44:36;;;;;;;3.40;1.50;;;33.90;40.90;;;;;;4976066;28;20720;-47
2022/05/18 08:47:33;;;;;;;2.20;1.80;;;34.40;38.10;;;;;;4976245;28;20437;-48
2022/05/18 08:50:05;;;;;;;3.57;1.20;;;32.50;39.50;;;;;;4976366;28;20900;-44
2022/05/18 08:52:58;;;;;;;1.97;1.60;;;32.30;39.80;;;;;;4976376;28;20525;-42
2022/05/18 08:55:46;;;;;;;1.40;1.27;;;34.10;38.40;;;;;;4976289;28;20439;-44
2022/05/18 08:58:22;;;;;;;1.57;1.47;;;35.30;35.40;;;;;;4976626;28;20983;-42
2022/05/18 09:00:56;;;;;;;2.40;1.70;;;35.70;35.60;;;;;;4975293;28;20534;-49
2022/05/18 09:03:34;;;;;;;3.07;2.50;;;34.90;36.40;;;;;;4975496;28;20550;-46
2022/05/18 09:06:32;;;;;;;1.30;1.20;;;35.90;36.30;;;;;;4975762;28;20444;-43
2022/05/18 09:11:54;;;;;;;2.03;1.83;;;32.40;37.40;;;;;;4975765;28;20466;-45
2022/05/18 09:14:24;;;;;;;1.90;1.63;;;32.20;36.40;;;;;;4958000;28;20515;-47
2022/05/18 09:17:09;;;;;;;1.60;1.50;;;32.50;37.00;;;;;;4976085;28;20501;-45
2022/05/18 09:20:29;;;;;;;2.83;1.43;;;33.40;36.80;;;;;;4976270;28;20492;-45
2022/05/18 09:23:08;;;;;;;1.50;1.40;;;31.00;36.40;;;;;;4981140;28;20538;-45
2022/05/18 09:25:45;;;;;;;3.70;1.67;;;27.70;39.80;;;;;;4988584;28;20517;-46
2022/05/18 09:28:18;;;;;;;2.33;1.60;;;26.00;43.30;;;;;;4993541;28;20470;-44
2022/05/18 09:30:57;;;;;;;2.63;1.40;;;24.80;44.80;;;;;;4989276;28;20492;-44
2022/05/18 09:33:44;;;;;;;1.50;1.37;;;23.00;47.90;;;;;;4976870;28;20440;-45
2022/05/18 09:36:55;;;;;;;2.20;1.33;;;21.90;48.10;;;;;;4976418;28;20589;-45
2022/05/18 09:39:27;;;;;;;5.40;1.53;;;21.30;48.30;;;;;;4953381;28;20507;-45
2022/05/18 09:41:59;;;;;;;3.30;1.90;;;20.90;50.70;;;;;;4995307;28;20530;-44
2022/05/18 09:44:33;;;;;;;2.07;1.40;;;20.90;52.10;;;;;;4993341;28;20830;-45
2022/05/18 09:47:01;;;;;;;1.27;1.17;;;20.80;53.10;;;;;;4995619;28;20682;-44
2022/05/18 09:49:42;;;;;;;1.90;1.80;;;20.60;52.50;;;;;;4993054;28;20438;-45
2022/05/18 09:52:10;;;;;;;1.83;1.30;;;20.40;52.00;;;;;;4995507;28;20431;-45
2022/05/18 09:54:38;;;;;;;1.57;1.30;;;20.30;53.40;;;;;;4994850;28;20449;-45
2022/05/18 09:57:27;;;;;;;2.33;1.93;;;20.30;53.40;;;;;;4995368;28;20420;-45
2022/05/18 10:00:02;;;;;;;1.50;1.40;;;20.30;54.30;;;;;;4995148;28;20449;-43
2022/05/18 10:08:34;;;;;;;1.53;1.43;;;20.10;52.60;;;;;;4995223;28;20495;-43
2022/05/18 10:11:05;;;;;;;3.50;1.60;;;20.10;52.90;;;;;;4997949;28;20522;-44
2022/05/18 10:13:43;;;;;;;2.30;1.30;;;20.00;53.60;;;;;;4999736;28;20439;-45
2022/05/18 10:16:16;;;;;;;2.23;1.43;;;19.90;52.70;;;;;;5002824;28;20418;-45
2022/05/18 10:18:58;;;;;;;1.47;1.07;;;19.80;52.20;;;;;;5003559;28;20462;-51
2022/05/18 10:21:38;;;;;;;1.97;1.10;;;19.70;54.10;;;;;;5001177;28;20457;-42
2022/05/18 10:24:55;;;;;;;1.60;1.20;;;19.80;54.10;;;;;;5001660;28;20525;-44
2022/05/18 10:27:29;;;;;;;1.50;1.33;;;19.90;53.10;;;;;;4966707;28;20762;-43
2022/05/18 10:30:16;;;;;;;2.20;1.37;;;19.80;54.50;;;;;;4999184;28;20535;-46
2022/05/18 10:33:25;;;;;;;9.67;1.80;;;19.80;52.50;;;;;;4998393;28;20410;-46
2022/05/18 10:35:54;;;;;;;4.00;1.70;;;19.60;50.70;;;;;;4976690;28;20421;-44
2022/05/18 10:38:27;;;;;;;1.10;1.00;;;19.70;52.30;;;;;;4996014;28;20756;-44
2022/05/18 10:41:13;;;;;;;1.17;1.00;;;19.70;50.60;;;;;;4998525;28;20843;-42
2022/05/18 10:44:03;;;;;;;2.20;1.33;;;19.60;49.40;;;;;;4998580;28;20456;-45
2022/05/18 10:46:44;;;;;;;1.63;0.70;;;19.60;50.70;;;;;;4998251;28;20622;-43
2022/05/18 10:49:32;;;;;;;1.93;1.30;;;19.60;50.20;;;;;;4998943;28;20417;-46
2022/05/18 10:52:37;;;;;;;5.20;1.67;;;19.40;49.90;;;;;;4998983;28;20736;-48
2022/05/18 10:55:14;;;;;;;3.40;1.50;;;19.10;51.10;;;;;;4999094;28;20795;-47
2022/05/18 10:58:18;;;;;;;4.63;1.43;;;19.20;50.60;;;;;;4998826;28;20780;-44
2022/05/18 11:00:54;;;;;;;1.60;1.00;;;19.40;48.00;;;;;;4988592;28;20467;-43
2022/05/18 11:03:49;;;;;;;2.23;1.60;;;19.50;47.20;;;;;;4998419;28;20444;-45
2022/05/18 11:06:35;;;;;;;2.13;1.30;;;19.40;48.50;;;;;;4998651;28;20442;-46
2022/05/18 11:09:28;;;;;;;1.20;1.10;;;19.60;49.50;;;;;;4998757;28;20604;-46
2022/05/18 11:12:05;;;;;;;1.90;1.57;;;19.60;49.30;;;;;;4998435;28;20573;-48
2022/05/18 11:14:33;;;;;;;2.00;1.60;;;19.50;50.10;;;;;;4998057;28;20451;-42
2022/05/18 11:17:06;;;;;;;1.13;1.07;;;19.70;50.30;;;;;;4998977;28;20966;-45
2022/05/18 11:19:43;;;;;;;1.20;1.10;;;19.90;49.40;;;;;;4997825;28;20451;-45
2022/05/18 11:22:48;;;;;;;2.87;1.57;;;19.90;49.00;;;;;;4987728;28;20464;-45
2022/05/18 11:25:40;;;;;;;0.80;0.80;;;19.90;48.20;;;;;;4980100;28;20480;-46
2022/05/18 11:28:50;;;;;;;1.70;1.30;;;19.60;48.00;;;;;;4977963;28;21026;-42
2022/05/18 11:31:44;;;;;;;2.67;1.10;;;19.60;48.00;;;;;;4988075;28;20535;-46
2022/05/18 11:34:33;;;;;;;1.27;1.17;;;19.60;46.50;;;;;;4979828;28;20822;-46
2022/05/18 11:37:38;;;;;;;1.20;1.10;;;19.70;48.50;;;;;;4978895;28;20492;-46
2022/05/18 11:40:38;;;;;;;2.73;1.17;;;19.60;46.50;;;;;;4978309;28;20443;-47
2022/05/18 11:43:45;;;;;;;2.47;0.90;;;19.60;46.80;;;;;;4978389;28;20446;-44
2022/05/18 11:46:16;;;;;;;1.97;1.37;;;19.60;47.50;;;;;;4978719;28;20471;-43
2022/05/18 11:48:54;;;;;;;1.80;1.03;;;19.80;48.80;;;;;;4978646;28;20825;-44
2022/05/18 11:51:21;;;;;;;1.63;1.30;;;20.10;46.00;;;;;;4977382;28;20435;-44
2022/05/18 11:53:53;;;;;;;1.43;1.33;;;20.00;46.00;;;;;;4977724;28;20767;-44
2022/05/18 11:56:45;;;;;;;2.07;1.30;;;19.70;45.00;;;;;;4978240;28;20613;-42
2022/05/18 11:59:37;;;;;;;2.60;1.53;;;19.40;45.70;;;;;;4979880;28;20477;-42
2022/05/18 12:02:42;;;;;;;1.47;1.33;;;19.30;48.00;;;;;;4978775;28;20823;-47
2022/05/18 12:05:46;;;;;;;1.97;1.17;;;19.50;47.50;;;;;;4978009;28;20485;-47
2022/05/18 12:08:37;;;;;;;1.10;0.63;;;19.60;45.60;;;;;;4978060;28;20658;-44
2022/05/18 12:11:34;;;;;;;2.60;1.90;;;19.70;46.90;;;;;;4977251;28;20477;-48
2022/05/18 12:14:15;;;;;;;2.43;2.20;;;19.90;46.80;;;;;;4978225;28;20459;-47
2022/05/18 12:16:56;;;;;;;1.93;1.60;;;19.80;49.00;;;;;;4977624;28;20445;-45
2022/05/18 12:19:57;;;;;;;1.30;1.20;;;19.90;49.10;;;;;;4977614;28;20437;-42
2022/05/18 12:22:35;;;;;;;2.20;1.43;;;19.70;48.30;;;;;;4954393;28;20540;-44
2022/05/18 12:25:08;;;;;;;1.20;1.03;;;19.40;47.90;;;;;;4977029;28;20708;-41
2022/05/18 12:27:36;;;;;;;1.50;1.40;;;19.40;48.70;;;;;;4977150;28;20447;-45
2022/05/18 12:30:07;;;;;;;1.10;1.00;;;19.60;47.80;;;;;;4977467;28;20464;-44
2022/05/18 12:32:36;;;;;;;1.57;0.90;;;19.50;47.20;;;;;;4977237;28;20540;-43
2022/05/18 12:35:20;;;;;;;1.57;1.17;;;19.20;47.00;;;;;;4976547;28;20479;-47
2022/05/18 12:38:20;;;;;;;2.60;1.43;;;19.20;48.40;;;;;;4977044;28;20414;-48
2022/05/18 12:40:50;;;;;;;1.57;1.00;;;19.40;49.00;;;;;;4976276;28;20547;-47
2022/05/18 12:43:32;;;;;;;1.70;1.07;;;19.60;48.20;;;;;;4976675;28;20498;-44
2022/05/18 12:46:04;;;;;;;1.40;1.30;;;19.80;48.60;;;;;;4976816;28;20679;-44
2022/05/18 12:48:35;;;;;;;1.07;0.97;;;20.00;48.60;;;;;;4977577;28;20448;-46
2022/05/18 12:51:12;;;;;;;7.10;1.87;;;20.10;47.40;;;;;;4977339;28;20858;-46
2022/05/18 12:54:18;;;;;;;3.73;1.43;;;20.10;48.10;;;;;;4977226;28;20423;-44
2022/05/18 12:57:06;;;;;;;1.50;1.40;;;20.30;48.00;;;;;;4978156;28;20446;-43
2022/05/18 13:00:08;;;;;;;1.30;1.20;;;20.20;48.90;;;;;;4977433;28;20435;-44
2022/05/18 13:02:41;;;;;;;1.43;1.33;;;20.00;48.50;;;;;;4977577;28;20472;-41
2022/05/18 13:05:27;;;;;;;2.07;1.47;;;19.80;48.10;;;;;;4977829;28;20459;-45
2022/05/18 13:08:11;;;;;;;1.53;1.43;;;19.90;47.80;;;;;;4980484;28;20517;-48
2022/05/18 13:10:38;;;;;;;1.43;1.17;;;19.80;47.50;;;;;;4977727;28;20477;-43
2022/05/18 13:13:25;;;;;;;1.50;1.40;;;19.70;49.00;;;;;;4988766;28;20437;-44
2022/05/18 13:15:57;;;;;;;1.80;1.57;;;19.70;47.90;;;;;;4991951;28;20449;-44
2022/05/18 13:18:36;;;;;;;2.30;1.90;;;19.80;48.50;;;;;;4995536;28;20465;-46
2022/05/18 13:21:06;;;;;;;1.13;1.03;;;20.00;48.70;;;;;;4995947;28;20470;-43
2022/05/18 13:24:01;;;;;;;1.70;1.53;;;20.20;47.80;;;;;;4995929;28;20418;-48
2022/05/18 13:26:36;;;;;;;2.13;1.93;;;20.10;48.10;;;;;;4995685;28;21019;-44
2022/05/18 13:29:18;;;;;;;1.63;1.30;;;20.20;47.20;;;;;;4996019;28;20436;-47
2022/05/18 13:31:51;;;;;;;1.53;1.23;;;20.10;47.00;;;;;;4994805;28;20455;-46
2022/05/18 13:34:25;;;;;;;4.13;1.90;;;20.00;45.90;;;;;;4995142;28;20817;-45
2022/05/18 13:36:58;;;;;;;1.83;1.73;;;20.10;47.10;;;;;;4980894;28;20441;-48
2022/05/18 13:39:46;;;;;;;1.07;0.93;;;20.30;46.90;;;;;;4976485;28;20441;-46
2022/05/18 13:42:20;;;;;;;3.23;1.40;;;20.60;46.30;;;;;;4976296;28;20457;-44
2022/05/18 13:44:52;;;;;;;1.60;1.30;;;20.50;45.70;;;;;;4975718;28;20455;-46
2022/05/18 13:47:42;;;;;;;1.80;1.13;;;20.20;45.90;;;;;;4976023;28;20621;-43